sensor_id;sensor_type;location;lat;lon;timestamp;pressure;altitude;pressure_sealevel;temperature;humidity
13456;BME280;6800;50.940;6.940;2022-11-15T00:03:29;100209.25;;;21.59;42.61
13456;BME280;6800;50.940;6.940;2022-11-15T00:07:30;100218.44;;;21.56;42.69
13456;BME280;6800;50.940;6.940;2022-11-15T00:11:30;100217.09;;;21.52;43.08
13456;BME280;6800;50.940;6.940;2022-11-15T00:15:30;100224.59;;;21.25;43.64
13456;BME280;6800;50.940;6.940;2022-11-15T00:19:30;100223.59;;;21.42;43.16
13456;BME280;6800;50.940;6.940;2022-11-15T00:23:31;100211.28;;;21.65;42.68
13456;BME280;6800;50.940;6.940;2022-11-15T00:27:31;100219.69;;;21.76;42.96
13456;BME280;6800;50.940;6.940;2022-11-15T00:31:31;100217.91;;;21.53;43.63
13456;BME280;6800;50.940;6.940;2022-11-15T00:35:32;100207.97;;;21.39;43.75
13456;BME280;6800;50.940;6.940;2022-11-15T00:39:35;100211.97;;;22.06;42.14
13456;BME280;6800;50.940;6.940;2022-11-15T00:43:36;100213.19;;;21.95;42.96
13456;BME280;6800;50.940;6.940;2022-11-15T00:47:37;100211.84;;;21.99;42.41
13456;BME280;6800;50.940;6.940;2022-11-15T00:51:38;100212.63;;;22.16;42.18
13456;BME280;6800;50.940;6.940;2022-11-15T00:55:38;100212.88;;;21.90;43.26
13456;BME280;6800;50.940;6.940;2022-11-15T00:59:38;100204.03;;;21.98;43.22
13456;BME280;6800;50.940;6.940;2022-11-15T01:03:40;100200.13;;;22.16;42.60
13456;BME280;6800;50.940;6.940;2022-11-15T01:07:40;100206.63;;;22.22;42.55
13456;BME280;6800;50.940;6.940;2022-11-15T01:11:41;100205.91;;;22.28;42.42
13456;BME280;6800;50.940;6.940;2022-11-15T01:15:42;100196.28;;;21.88;43.46
13456;BME280;6800;50.940;6.940;2022-11-15T01:19:42;100199.84;;;22.11;43.21
13456;BME280;6800;50.940;6.940;2022-11-15T01:23:43;100195.38;;;22.12;43.18
13456;BME280;6800;50.940;6.940;2022-11-15T01:27:43;100190.09;;;22.34;42.97
13456;BME280;6800;50.940;6.940;2022-11-15T01:31:43;100198.81;;;22.51;42.39
13456;BME280;6800;50.940;6.940;2022-11-15T01:35:44;100199.19;;;22.40;43.08
13456;BME280;6800;50.940;6.940;2022-11-15T01:39:44;100196.66;;;22.46;43.20
13456;BME280;6800;50.940;6.940;2022-11-15T01:43:47;100188.81;;;22.53;42.75
13456;BME280;6800;50.940;6.940;2022-11-15T01:47:52;100176.69;;;22.50;42.52
13456;BME280;6800;50.940;6.940;2022-11-15T01:51:54;100175.56;;;22.45;42.99
13456;BME280;6800;50.940;6.940;2022-11-15T01:55:55;100172.00;;;22.52;42.86
13456;BME280;6800;50.940;6.940;2022-11-15T01:59:57;100166.13;;;22.65;42.83
13456;BME280;6800;50.940;6.940;2022-11-15T02:04:00;100154.13;;;22.69;42.43
13456;BME280;6800;50.940;6.940;2022-11-15T02:08:02;100154.91;;;22.78;42.17
13456;BME280;6800;50.940;6.940;2022-11-15T02:12:03;100152.91;;;22.80;42.20
13456;BME280;6800;50.940;6.940;2022-11-15T02:16:12;100138.13;;;22.77;42.66
13456;BME280;6800;50.940;6.940;2022-11-15T02:25:03;100135.72;;;22.82;42.62
13456;BME280;6800;50.940;6.940;2022-11-15T02:29:14;100136.56;;;22.83;42.37
13456;BME280;6800;50.940;6.940;2022-11-15T02:33:41;100133.81;;;22.91;42.17
13456;BME280;6800;50.940;6.940;2022-11-15T02:37:55;100124.59;;;22.33;43.49
13456;BME280;6800;50.940;6.940;2022-11-15T02:42:07;100123.28;;;22.60;42.86
13456;BME280;6800;50.940;6.940;2022-11-15T02:46:42;100122.94;;;22.78;42.73
13456;BME280;6800;50.940;6.940;2022-11-15T02:51:04;100109.91;;;22.68;43.45
13456;BME280;6800;50.940;6.940;2022-11-15T02:55:04;100106.84;;;22.48;43.55
13456;BME280;6800;50.940;6.940;2022-11-15T03:03:35;100098.75;;;22.87;42.81
13456;BME280;6800;50.940;6.940;2022-11-15T03:07:50;100097.03;;;22.94;42.49
13456;BME280;6800;50.940;6.940;2022-11-15T03:11:59;100102.00;;;22.97;42.61
13456;BME280;6800;50.940;6.940;2022-11-15T03:16:08;100103.13;;;23.03;42.37
13456;BME280;6800;50.940;6.940;2022-11-15T03:20:11;100099.25;;;23.05;42.84
13456;BME280;6800;50.940;6.940;2022-11-15T03:24:14;100098.66;;;22.81;42.83
13456;BME280;6800;50.940;6.940;2022-11-15T03:28:21;100100.03;;;22.77;43.21
13456;BME280;6800;50.940;6.940;2022-11-15T03:32:25;100112.19;;;22.26;44.33
13456;BME280;6800;50.940;6.940;2022-11-15T03:36:26;100105.91;;;21.88;44.99
13456;BME280;6800;50.940;6.940;2022-11-15T03:40:38;100097.16;;;22.56;43.90
13456;BME280;6800;50.940;6.940;2022-11-15T03:45:19;100096.94;;;22.88;43.18
13456;BME280;6800;50.940;6.940;2022-11-15T03:49:32;100090.78;;;22.42;43.82
13456;BME280;6800;50.940;6.940;2022-11-15T03:53:34;100087.28;;;22.87;43.08
13456;BME280;6800;50.940;6.940;2022-11-15T03:57:34;100086.69;;;22.62;43.30
13456;BME280;6800;50.940;6.940;2022-11-15T04:01:34;100086.53;;;22.33;43.97
13456;BME280;6800;50.940;6.940;2022-11-15T04:05:34;100083.88;;;22.78;43.31
13456;BME280;6800;50.940;6.940;2022-11-15T04:09:35;100082.16;;;22.85;43.56
13456;BME280;6800;50.940;6.940;2022-11-15T04:13:55;100079.06;;;22.96;43.01
13456;BME280;6800;50.940;6.940;2022-11-15T04:17:56;100082.44;;;22.90;43.20
13456;BME280;6800;50.940;6.940;2022-11-15T04:21:57;100072.91;;;23.10;43.07
13456;BME280;6800;50.940;6.940;2022-11-15T04:26:18;100076.66;;;23.01;42.33
13456;BME280;6800;50.940;6.940;2022-11-15T04:30:19;100067.47;;;22.89;42.95
13456;BME280;6800;50.940;6.940;2022-11-15T04:34:19;100072.22;;;22.79;43.42
13456;BME280;6800;50.940;6.940;2022-11-15T04:38:19;100067.47;;;22.89;43.12
13456;BME280;6800;50.940;6.940;2022-11-15T04:42:19;100075.22;;;23.13;42.57
13456;BME280;6800;50.940;6.940;2022-11-15T04:46:20;100083.44;;;22.89;43.29
13456;BME280;6800;50.940;6.940;2022-11-15T04:50:20;100074.38;;;22.61;43.97
13456;BME280;6800;50.940;6.940;2022-11-15T04:54:21;100071.91;;;23.11;42.54
13456;BME280;6800;50.940;6.940;2022-11-15T04:58:21;100076.25;;;22.07;44.91
13456;BME280;6800;50.940;6.940;2022-11-15T05:02:21;100087.00;;;22.82;44.07
13456;BME280;6800;50.940;6.940;2022-11-15T05:06:21;100083.53;;;22.96;42.99
13456;BME280;6800;50.940;6.940;2022-11-15T05:10:22;100071.44;;;22.48;44.50
13456;BME280;6800;50.940;6.940;2022-11-15T05:14:22;100083.22;;;22.31;44.61
13456;BME280;6800;50.940;6.940;2022-11-15T05:18:22;100077.03;;;22.98;43.44
13456;BME280;6800;50.940;6.940;2022-11-15T05:22:22;100085.00;;;22.84;43.67
13456;BME280;6800;50.940;6.940;2022-11-15T05:26:23;100087.50;;;23.00;42.60
13456;BME280;6800;50.940;6.940;2022-11-15T05:30:23;100082.59;;;22.89;43.15
13456;BME280;6800;50.940;6.940;2022-11-15T05:34:24;100083.34;;;22.97;43.41
13456;BME280;6800;50.940;6.940;2022-11-15T05:38:25;100081.06;;;22.94;42.87
13456;BME280;6800;50.940;6.940;2022-11-15T05:42:26;100081.13;;;22.86;43.59
13456;BME280;6800;50.940;6.940;2022-11-15T05:46:27;100070.88;;;22.98;42.63
13456;BME280;6800;50.940;6.940;2022-11-15T05:50:28;100079.59;;;22.92;42.67
13456;BME280;6800;50.940;6.940;2022-11-15T05:54:28;100072.22;;;22.79;43.25
13456;BME280;6800;50.940;6.940;2022-11-15T05:58:32;100078.72;;;22.54;43.93
13456;BME280;6800;50.940;6.940;2022-11-15T06:02:32;100079.41;;;22.48;43.80
13456;BME280;6800;50.940;6.940;2022-11-15T06:06:33;100088.88;;;22.50;43.81
13456;BME280;6800;50.940;6.940;2022-11-15T06:10:33;100091.28;;;22.45;44.10
13456;BME280;6800;50.940;6.940;2022-11-15T06:14:33;100100.56;;;22.19;44.35
13456;BME280;6800;50.940;6.940;2022-11-15T06:18:34;100099.41;;;22.21;44.01
13456;BME280;6800;50.940;6.940;2022-11-15T06:22:35;100106.31;;;21.69;45.42
13456;BME280;6800;50.940;6.940;2022-11-15T06:26:35;100106.50;;;22.29;44.49
13456;BME280;6800;50.940;6.940;2022-11-15T06:30:35;100106.19;;;21.93;44.97
13456;BME280;6800;50.940;6.940;2022-11-15T06:34:36;100109.38;;;21.97;44.56
13456;BME280;6800;50.940;6.940;2022-11-15T06:38:36;100119.34;;;21.95;44.38
13456;BME280;6800;50.940;6.940;2022-11-15T06:42:36;100128.91;;;21.65;45.11
13456;BME280;6800;50.940;6.940;2022-11-15T06:46:37;100128.41;;;21.61;44.79
13456;BME280;6800;50.940;6.940;2022-11-15T06:50:37;100127.97;;;21.89;43.98
13456;BME280;6800;50.940;6.940;2022-11-15T06:54:37;100125.47;;;21.95;43.75
13456;BME280;6800;50.940;6.940;2022-11-15T06:58:37;100131.56;;;21.65;44.16
13456;BME280;6800;50.940;6.940;2022-11-15T07:02:38;100122.94;;;22.02;43.53
13456;BME280;6800;50.940;6.940;2022-11-15T07:06:38;100118.28;;;22.04;43.53
13456;BME280;6800;50.940;6.940;2022-11-15T07:10:38;100137.97;;;21.78;43.47
13456;BME280;6800;50.940;6.940;2022-11-15T07:14:39;100137.63;;;21.90;43.38
13456;BME280;6800;50.940;6.940;2022-11-15T07:18:40;100140.78;;;22.24;42.25
13456;BME280;6800;50.940;6.940;2022-11-15T07:22:41;100153.59;;;22.20;42.46
13456;BME280;6800;50.940;6.940;2022-11-15T07:26:41;100154.06;;;22.24;42.76
13456;BME280;6800;50.940;6.940;2022-11-15T07:30:41;100152.13;;;22.18;42.83
13456;BME280;6800;50.940;6.940;2022-11-15T07:34:42;100152.94;;;22.18;42.68
13456;BME280;6800;50.940;6.940;2022-11-15T07:38:42;100160.19;;;21.94;42.99
13456;BME280;6800;50.940;6.940;2022-11-15T07:42:42;100157.97;;;21.58;43.56
13456;BME280;6800;50.940;6.940;2022-11-15T07:46:55;100157.97;;;21.58;43.14
13456;BME280;6800;50.940;6.940;2022-11-15T07:50:56;100162.25;;;21.75;42.59
13456;BME280;6800;50.940;6.940;2022-11-15T07:54:56;100163.81;;;22.31;40.89
13456;BME280;6800;50.940;6.940;2022-11-15T07:58:56;100164.28;;;22.43;40.39
13456;BME280;6800;50.940;6.940;2022-11-15T08:03:04;100167.06;;;22.19;41.01
13456;BME280;6800;50.940;6.940;2022-11-15T08:07:04;100176.34;;;21.76;41.66
13456;BME280;6800;50.940;6.940;2022-11-15T08:11:05;100162.31;;;22.37;40.24
13456;BME280;6800;50.940;6.940;2022-11-15T08:15:05;100159.50;;;22.00;40.99
13456;BME280;6800;50.940;6.940;2022-11-15T08:19:06;100169.09;;;22.70;39.79
13456;BME280;6800;50.940;6.940;2022-11-15T08:23:07;100165.84;;;22.83;39.74
13456;BME280;6800;50.940;6.940;2022-11-15T08:27:08;100159.50;;;23.06;39.49
13456;BME280;6800;50.940;6.940;2022-11-15T08:31:16;100164.50;;;23.24;38.93
13456;BME280;6800;50.940;6.940;2022-11-15T08:35:18;100154.03;;;22.85;39.19
13456;BME280;6800;50.940;6.940;2022-11-15T08:39:18;100149.56;;;23.00;38.17
13456;BME280;6800;50.940;6.940;2022-11-15T08:43:19;100157.59;;;23.15;37.35
13456;BME280;6800;50.940;6.940;2022-11-15T08:47:19;100144.31;;;23.88;36.83
13456;BME280;6800;50.940;6.940;2022-11-15T08:51:19;100146.28;;;23.79;36.38
13456;BME280;6800;50.940;6.940;2022-11-15T08:55:19;100138.75;;;23.54;36.80
13456;BME280;6800;50.940;6.940;2022-11-15T08:59:20;100131.75;;;24.32;35.56
13456;BME280;6800;50.940;6.940;2022-11-15T09:03:20;100130.81;;;24.40;35.30
13456;BME280;6800;50.940;6.940;2022-11-15T09:07:20;100130.34;;;24.15;35.45
13456;BME280;6800;50.940;6.940;2022-11-15T09:11:21;100133.31;;;24.27;34.70
13456;BME280;6800;50.940;6.940;2022-11-15T09:15:22;100126.19;;;24.13;34.78
13456;BME280;6800;50.940;6.940;2022-11-15T09:19:22;100112.69;;;24.56;34.06
13456;BME280;6800;50.940;6.940;2022-11-15T09:23:22;100108.84;;;25.08;33.53
13456;BME280;6800;50.940;6.940;2022-11-15T09:27:27;100112.47;;;25.49;32.26
13456;BME280;6800;50.940;6.940;2022-11-15T09:31:27;100112.03;;;25.93;31.78
13456;BME280;6800;50.940;6.940;2022-11-15T09:35:29;100113.16;;;26.11;32.07
13456;BME280;6800;50.940;6.940;2022-11-15T09:39:31;100114.09;;;25.50;32.94
13456;BME280;6800;50.940;6.940;2022-11-15T09:52:21;100082.44;;;25.19;31.54
13456;BME280;6800;50.940;6.940;2022-11-15T09:56:26;100079.44;;;26.30;30.26
13456;BME280;6800;50.940;6.940;2022-11-15T10:00:43;100070.09;;;25.18;31.17
13456;BME280;6800;50.940;6.940;2022-11-15T10:04:44;100049.88;;;25.84;29.97
13456;BME280;6800;50.940;6.940;2022-11-15T10:12:49;100037.88;;;24.99;30.76
13456;BME280;6800;50.940;6.940;2022-11-15T10:21:17;100029.63;;;26.55;28.78
13456;BME280;6800;50.940;6.940;2022-11-15T10:25:31;100015.63;;;27.69;26.44
13456;BME280;6800;50.940;6.940;2022-11-15T10:29:32;100019.97;;;26.74;27.52
13456;BME280;6800;50.940;6.940;2022-11-15T10:33:34;100023.03;;;26.97;26.76
13456;BME280;6800;50.940;6.940;2022-11-15T10:37:35;100005.50;;;28.34;24.77
13456;BME280;6800;50.940;6.940;2022-11-15T10:41:39;100010.84;;;26.09;26.82
13456;BME280;6800;50.940;6.940;2022-11-15T10:45:40;100001.91;;;27.46;25.10
13456;BME280;6800;50.940;6.940;2022-11-15T10:49:53;100002.22;;;26.92;25.70
13456;BME280;6800;50.940;6.940;2022-11-15T10:53:59;99995.22;;;26.91;25.22
13456;BME280;6800;50.940;6.940;2022-11-15T11:02:43;99990.50;;;26.80;25.53
13456;BME280;6800;50.940;6.940;2022-11-15T11:06:50;99980.25;;;27.41;24.69
13456;BME280;6800;50.940;6.940;2022-11-15T11:10:55;99973.78;;;28.49;23.52
13456;BME280;6800;50.940;6.940;2022-11-15T11:14:57;99977.28;;;27.56;24.48
13456;BME280;6800;50.940;6.940;2022-11-15T11:19:15;99978.50;;;27.60;24.47
13456;BME280;6800;50.940;6.940;2022-11-15T11:23:26;99965.56;;;26.34;26.18
13456;BME280;6800;50.940;6.940;2022-11-15T11:28:01;99966.88;;;25.58;27.55
13456;BME280;6800;50.940;6.940;2022-11-15T11:32:23;99961.25;;;25.40;27.77
13456;BME280;6800;50.940;6.940;2022-11-15T11:40:57;99948.09;;;24.36;29.31
13456;BME280;6800;50.940;6.940;2022-11-15T11:49:15;99948.66;;;24.87;28.94
13456;BME280;6800;50.940;6.940;2022-11-15T11:53:50;99944.06;;;24.74;28.94
13456;BME280;6800;50.940;6.940;2022-11-15T12:02:24;99936.41;;;25.05;29.26
13456;BME280;6800;50.940;6.940;2022-11-15T12:11:06;99909.59;;;24.79;29.21
13456;BME280;6800;50.940;6.940;2022-11-15T12:19:08;99896.31;;;25.46;28.67
13456;BME280;6800;50.940;6.940;2022-11-15T12:23:16;99886.94;;;25.16;29.16
13456;BME280;6800;50.940;6.940;2022-11-15T12:27:39;99872.97;;;25.20;29.17
13456;BME280;6800;50.940;6.940;2022-11-15T12:31:44;99880.28;;;24.58;30.59
13456;BME280;6800;50.940;6.940;2022-11-15T12:35:58;99875.72;;;24.86;30.90
13456;BME280;6800;50.940;6.940;2022-11-15T12:40:21;99868.16;;;26.02;28.98
13456;BME280;6800;50.940;6.940;2022-11-15T12:57:29;99832.03;;;24.59;31.38
13456;BME280;6800;50.940;6.940;2022-11-15T13:13:44;99797.66;;;24.43;31.92
13456;BME280;6800;50.940;6.940;2022-11-15T13:17:46;99797.53;;;24.58;31.75
13456;BME280;6800;50.940;6.940;2022-11-15T13:21:49;99791.94;;;25.07;31.81
13456;BME280;6800;50.940;6.940;2022-11-15T13:26:13;99783.09;;;24.87;33.39
13456;BME280;6800;50.940;6.940;2022-11-15T13:30:23;99775.94;;;25.13;33.14
13456;BME280;6800;50.940;6.940;2022-11-15T13:34:29;99780.13;;;25.42;32.41
13456;BME280;6800;50.940;6.940;2022-11-15T13:38:37;99774.34;;;23.90;35.19
13456;BME280;6800;50.940;6.940;2022-11-15T13:42:37;99762.91;;;24.77;33.46
13456;BME280;6800;50.940;6.940;2022-11-15T13:46:37;99756.03;;;25.22;33.16
13456;BME280;6800;50.940;6.940;2022-11-15T13:50:39;99750.28;;;25.19;33.34
13456;BME280;6800;50.940;6.940;2022-11-15T13:54:43;99740.25;;;24.67;34.23
13456;BME280;6800;50.940;6.940;2022-11-15T13:58:45;99755.13;;;24.83;33.36
13456;BME280;6800;50.940;6.940;2022-11-15T14:02:46;99736.34;;;24.16;34.80
13456;BME280;6800;50.940;6.940;2022-11-15T14:06:50;99737.72;;;25.00;33.64
13456;BME280;6800;50.940;6.940;2022-11-15T14:11:15;99722.25;;;24.22;35.27
13456;BME280;6800;50.940;6.940;2022-11-15T14:15:35;99709.28;;;24.72;33.75
13456;BME280;6800;50.940;6.940;2022-11-15T14:19:37;99701.97;;;24.34;35.20
13456;BME280;6800;50.940;6.940;2022-11-15T14:23:38;99700.38;;;24.52;34.38
13456;BME280;6800;50.940;6.940;2022-11-15T14:27:39;99688.09;;;24.64;34.15
13456;BME280;6800;50.940;6.940;2022-11-15T14:31:39;99680.34;;;24.76;34.18
13456;BME280;6800;50.940;6.940;2022-11-15T14:35:40;99682.41;;;24.20;35.51
13456;BME280;6800;50.940;6.940;2022-11-15T14:39:41;99673.88;;;23.97;35.42
13456;BME280;6800;50.940;6.940;2022-11-15T14:43:41;99660.13;;;24.54;34.75
13456;BME280;6800;50.940;6.940;2022-11-15T14:47:42;99670.78;;;24.34;35.21
13456;BME280;6800;50.940;6.940;2022-11-15T14:51:42;99668.16;;;24.00;35.63
13456;BME280;6800;50.940;6.940;2022-11-15T14:55:43;99663.72;;;25.20;33.61
13456;BME280;6800;50.940;6.940;2022-11-15T14:59:43;99658.34;;;24.67;34.68
13456;BME280;6800;50.940;6.940;2022-11-15T15:03:43;99654.59;;;24.42;35.09
13456;BME280;6800;50.940;6.940;2022-11-15T15:07:44;99647.91;;;24.86;34.13
13456;BME280;6800;50.940;6.940;2022-11-15T15:11:45;99627.31;;;24.66;34.45
13456;BME280;6800;50.940;6.940;2022-11-15T15:15:46;99628.47;;;24.25;35.48
13456;BME280;6800;50.940;6.940;2022-11-15T15:19:47;99610.50;;;24.86;34.01
13456;BME280;6800;50.940;6.940;2022-11-15T15:23:47;99610.47;;;24.59;34.73
13456;BME280;6800;50.940;6.940;2022-11-15T15:27:48;99613.53;;;24.50;34.95
13456;BME280;6800;50.940;6.940;2022-11-15T15:31:48;99599.00;;;24.72;34.36
13456;BME280;6800;50.940;6.940;2022-11-15T15:35:49;99590.94;;;24.46;34.82
13456;BME280;6800;50.940;6.940;2022-11-15T15:39:53;99578.28;;;24.74;34.53
13456;BME280;6800;50.940;6.940;2022-11-15T15:43:54;99580.47;;;24.31;35.45
13456;BME280;6800;50.940;6.940;2022-11-15T15:47:55;99579.31;;;23.99;36.27
13456;BME280;6800;50.940;6.940;2022-11-15T15:51:56;99581.28;;;24.32;36.39
13456;BME280;6800;50.940;6.940;2022-11-15T15:55:56;99580.50;;;24.57;35.73
13456;BME280;6800;50.940;6.940;2022-11-15T15:59:56;99569.41;;;24.60;35.69
13456;BME280;6800;50.940;6.940;2022-11-15T16:03:57;99556.41;;;24.12;36.52
13456;BME280;6800;50.940;6.940;2022-11-15T16:07:57;99561.78;;;24.31;35.81
13456;BME280;6800;50.940;6.940;2022-11-15T16:11:57;99550.94;;;24.52;35.20
13456;BME280;6800;50.940;6.940;2022-11-15T16:15:57;99559.09;;;24.18;36.04
13456;BME280;6800;50.940;6.940;2022-11-15T16:19:59;99554.66;;;23.84;36.99
13456;BME280;6800;50.940;6.940;2022-11-15T16:23:59;99554.22;;;24.54;35.53
13456;BME280;6800;50.940;6.940;2022-11-15T16:27:59;99552.75;;;24.32;35.80
13456;BME280;6800;50.940;6.940;2022-11-15T16:32:00;99547.91;;;23.95;36.74
13456;BME280;6800;50.940;6.940;2022-11-15T16:36:01;99552.34;;;24.29;36.09
13456;BME280;6800;50.940;6.940;2022-11-15T16:44:29;99542.28;;;24.37;36.08
13456;BME280;6800;50.940;6.940;2022-11-15T16:48:29;99546.31;;;24.07;36.33
13456;BME280;6800;50.940;6.940;2022-11-15T16:52:30;99533.88;;;24.40;35.30
13456;BME280;6800;50.940;6.940;2022-11-15T16:56:30;99536.16;;;23.76;36.96
13456;BME280;6800;50.940;6.940;2022-11-15T17:00:30;99537.97;;;24.30;36.54
13456;BME280;6800;50.940;6.940;2022-11-15T17:04:31;99537.47;;;24.00;36.64
13456;BME280;6800;50.940;6.940;2022-11-15T17:08:32;99529.50;;;23.53;37.67
13456;BME280;6800;50.940;6.940;2022-11-15T17:12:35;99533.25;;;23.65;37.43
13456;BME280;6800;50.940;6.940;2022-11-15T17:16:36;99535.56;;;23.81;37.08
13456;BME280;6800;50.940;6.940;2022-11-15T17:20:37;99540.00;;;24.15;36.64
13456;BME280;6800;50.940;6.940;2022-11-15T17:24:37;99541.41;;;23.57;37.32
13456;BME280;6800;50.940;6.940;2022-11-15T17:28:38;99537.81;;;24.64;35.81
13456;BME280;6800;50.940;6.940;2022-11-15T17:32:38;99537.81;;;24.70;35.58
13456;BME280;6800;50.940;6.940;2022-11-15T17:36:38;99541.88;;;24.66;36.73
13456;BME280;6800;50.940;6.940;2022-11-15T17:40:39;99547.09;;;23.94;38.85
13456;BME280;6800;50.940;6.940;2022-11-15T17:44:39;99528.41;;;23.88;39.16
13456;BME280;6800;50.940;6.940;2022-11-15T17:48:40;99544.03;;;23.97;39.30
13456;BME280;6800;50.940;6.940;2022-11-15T17:52:40;99534.09;;;24.32;39.13
13456;BME280;6800;50.940;6.940;2022-11-15T17:56:41;99525.34;;;23.91;39.87
13456;BME280;6800;50.940;6.940;2022-11-15T18:00:41;99524.53;;;23.97;40.11
13456;BME280;6800;50.940;6.940;2022-11-15T18:04:41;99522.94;;;24.02;40.41
13456;BME280;6800;50.940;6.940;2022-11-15T18:08:43;99516.53;;;23.37;42.04
13456;BME280;6800;50.940;6.940;2022-11-15T18:12:44;99512.78;;;23.72;41.62
13456;BME280;6800;50.940;6.940;2022-11-15T18:16:44;99512.50;;;23.47;42.77
13456;BME280;6800;50.940;6.940;2022-11-15T18:20:45;99517.25;;;23.24;43.59
13456;BME280;6800;50.940;6.940;2022-11-15T18:24:45;99518.38;;;22.53;44.62
13456;BME280;6800;50.940;6.940;2022-11-15T18:28:47;99513.94;;;23.50;43.02
13456;BME280;6800;50.940;6.940;2022-11-15T18:32:48;99498.97;;;23.14;44.39
13456;BME280;6800;50.940;6.940;2022-11-15T18:36:50;99491.25;;;23.26;44.66
13456;BME280;6800;50.940;6.940;2022-11-15T18:40:51;99490.31;;;23.06;45.21
13456;BME280;6800;50.940;6.940;2022-11-15T18:44:51;99484.19;;;22.78;45.61
13456;BME280;6800;50.940;6.940;2022-11-15T18:48:52;99480.91;;;22.76;46.29
13456;BME280;6800;50.940;6.940;2022-11-15T18:52:53;99479.09;;;22.06;46.82
13456;BME280;6800;50.940;6.940;2022-11-15T18:56:53;99480.03;;;22.96;46.07
13456;BME280;6800;50.940;6.940;2022-11-15T19:00:59;99479.56;;;22.59;46.65
13456;BME280;6800;50.940;6.940;2022-11-15T19:04:59;99475.41;;;23.11;46.16
13456;BME280;6800;50.940;6.940;2022-11-15T19:09:00;99466.19;;;22.52;47.19
13456;BME280;6800;50.940;6.940;2022-11-15T19:13:00;99457.50;;;22.65;46.84
13456;BME280;6800;50.940;6.940;2022-11-15T19:17:00;99465.59;;;22.84;47.55
13456;BME280;6800;50.940;6.940;2022-11-15T19:21:03;99461.19;;;22.64;47.70
13456;BME280;6800;50.940;6.940;2022-11-15T19:25:04;99454.19;;;22.35;48.16
13456;BME280;6800;50.940;6.940;2022-11-15T19:29:06;99451.66;;;22.06;48.33
13456;BME280;6800;50.940;6.940;2022-11-15T19:33:06;99451.38;;;22.43;47.62
13456;BME280;6800;50.940;6.940;2022-11-15T19:37:07;99448.75;;;22.71;48.00
13456;BME280;6800;50.940;6.940;2022-11-15T19:41:10;99443.19;;;22.66;47.88
13456;BME280;6800;50.940;6.940;2022-11-15T19:45:11;99444.47;;;22.76;47.74
13456;BME280;6800;50.940;6.940;2022-11-15T19:49:11;99434.41;;;22.44;48.41
13456;BME280;6800;50.940;6.940;2022-11-15T19:53:11;99437.09;;;22.23;48.29
13456;BME280;6800;50.940;6.940;2022-11-15T19:57:12;99429.88;;;22.17;48.97
13456;BME280;6800;50.940;6.940;2022-11-15T20:01:17;99428.81;;;22.60;48.17
13456;BME280;6800;50.940;6.940;2022-11-15T20:05:17;99430.31;;;22.41;48.43
13456;BME280;6800;50.940;6.940;2022-11-15T20:09:18;99436.56;;;22.34;49.18
13456;BME280;6800;50.940;6.940;2022-11-15T20:13:19;99428.94;;;22.52;48.23
13456;BME280;6800;50.940;6.940;2022-11-15T20:17:19;99421.41;;;22.56;48.67
13456;BME280;6800;50.940;6.940;2022-11-15T20:21:20;99420.97;;;22.52;48.56
13456;BME280;6800;50.940;6.940;2022-11-15T20:25:20;99416.22;;;22.47;48.49
13456;BME280;6800;50.940;6.940;2022-11-15T20:29:21;99425.47;;;21.82;49.38
13456;BME280;6800;50.940;6.940;2022-11-15T20:33:22;99420.78;;;22.53;48.21
13456;BME280;6800;50.940;6.940;2022-11-15T20:37:23;99414.38;;;22.76;47.99
13456;BME280;6800;50.940;6.940;2022-11-15T20:41:23;99412.47;;;22.63;48.15
13456;BME280;6800;50.940;6.940;2022-11-15T20:45:24;99420.56;;;22.27;48.54
13456;BME280;6800;50.940;6.940;2022-11-15T20:49:24;99415.41;;;22.47;48.63
13456;BME280;6800;50.940;6.940;2022-11-15T20:53:24;99410.38;;;22.59;48.33
13456;BME280;6800;50.940;6.940;2022-11-15T20:57:24;99400.41;;;22.67;48.31
13456;BME280;6800;50.940;6.940;2022-11-15T21:01:25;99396.41;;;22.50;48.52
13456;BME280;6800;50.940;6.940;2022-11-15T21:05:25;99400.84;;;22.15;48.94
13456;BME280;6800;50.940;6.940;2022-11-15T21:09:26;99390.09;;;22.58;48.27
13456;BME280;6800;50.940;6.940;2022-11-15T21:13:44;99389.75;;;22.67;48.26
13456;BME280;6800;50.940;6.940;2022-11-15T21:17:45;99388.75;;;22.40;48.11
13456;BME280;6800;50.940;6.940;2022-11-15T21:21:45;99380.16;;;22.66;48.35
13456;BME280;6800;50.940;6.940;2022-11-15T21:25:52;99376.78;;;22.58;47.93
13456;BME280;6800;50.940;6.940;2022-11-15T21:29:52;99371.03;;;22.20;49.04
13456;BME280;6800;50.940;6.940;2022-11-15T21:33:52;99368.63;;;22.04;49.57
13456;BME280;6800;50.940;6.940;2022-11-15T21:37:52;99363.63;;;22.43;48.50
13456;BME280;6800;50.940;6.940;2022-11-15T21:41:53;99363.16;;;22.39;48.58
13456;BME280;6800;50.940;6.940;2022-11-15T21:45:58;99361.97;;;22.42;49.17
13456;BME280;6800;50.940;6.940;2022-11-15T21:50:01;99353.75;;;22.37;49.10
13456;BME280;6800;50.940;6.940;2022-11-15T21:54:02;99341.88;;;22.39;48.68
13456;BME280;6800;50.940;6.940;2022-11-15T21:58:02;99344.09;;;22.64;48.54
13456;BME280;6800;50.940;6.940;2022-11-15T22:02:02;99342.91;;;22.66;48.38
13456;BME280;6800;50.940;6.940;2022-11-15T22:06:14;99326.63;;;22.14;49.33
13456;BME280;6800;50.940;6.940;2022-11-15T22:10:15;99328.50;;;22.54;48.75
13456;BME280;6800;50.940;6.940;2022-11-15T22:14:16;99319.66;;;22.47;48.52
13456;BME280;6800;50.940;6.940;2022-11-15T22:18:16;99320.84;;;22.10;49.54
13456;BME280;6800;50.940;6.940;2022-11-15T22:22:17;99321.34;;;22.27;49.08
13456;BME280;6800;50.940;6.940;2022-11-15T22:26:18;99321.06;;;22.43;48.32
13456;BME280;6800;50.940;6.940;2022-11-15T22:30:19;99310.97;;;22.32;48.55
13456;BME280;6800;50.940;6.940;2022-11-15T22:34:20;99308.63;;;22.50;48.69
13456;BME280;6800;50.940;6.940;2022-11-15T22:38:20;99304.72;;;22.52;48.68
13456;BME280;6800;50.940;6.940;2022-11-15T22:42:21;99300.66;;;22.50;48.41
13456;BME280;6800;50.940;6.940;2022-11-15T22:46:21;99296.25;;;22.36;49.01
13456;BME280;6800;50.940;6.940;2022-11-15T22:50:22;99289.19;;;22.49;48.70
13456;BME280;6800;50.940;6.940;2022-11-15T22:54:22;99290.75;;;22.78;47.85
13456;BME280;6800;50.940;6.940;2022-11-15T22:58:24;99290.97;;;22.77;48.12